Time;durP1;ratioP1;P1;durP2;ratioP2;P2;SDS_P1;SDS_P2;PMS_P1;PMS_P2;Temp;Humidity;BMP_temperature;BMP_pressure;BME280_temperature;BME280_humidity;BME280_pressure;Samples;Min_cycle;Max_cycle;Signal;HPM_P1;HPM_P2
2021/12/25 00:01:15;;;;;;;12.65;7.07;;;;;;;4.31;64.98;91714.88;2071376;69;20132;-72
2021/12/25 00:03:41;;;;;;;17.85;8.55;;;;;;;3.99;66.92;91718.97;2074609;69;20623;-71
2021/12/25 00:06:07;;;;;;;14.30;8.13;;;;;;;4.18;65.64;91718.91;2074597;69;20679;-73
2021/12/25 00:08:33;;;;;;;14.63;7.75;;;;;;;4.09;66.20;91716.88;2071257;69;20650;-73
2021/12/25 00:11:01;;;;;;;12.80;7.50;;;;;;;4.05;65.98;91730.53;2070975;69;20163;-70
2021/12/25 00:13:27;;;;;;;11.32;6.97;;;;;;;4.27;65.19;91711.81;2067558;69;20156;-74
2021/12/25 00:15:53;;;;;;;13.93;7.57;;;;;;;4.27;64.96;91698.63;2070893;69;20175;-73
2021/12/25 00:18:19;;;;;;;12.60;6.70;;;;;;;4.18;65.77;91712.59;2071161;69;20172;-77
2021/12/25 00:20:45;;;;;;;13.48;7.30;;;;;;;4.20;65.86;91712.72;2071106;69;20238;-73
2021/12/25 00:23:11;;;;;;;12.00;7.30;;;;;;;4.22;65.08;91694.09;2071396;69;20168;-74
2021/12/25 00:25:42;;;;;;;15.32;7.40;;;;;;;4.18;65.26;91701.47;2074610;69;20143;-78
2021/12/25 00:31:11;;;;;;;15.40;7.45;;;;;;;3.87;67.00;91712.56;2071471;69;20236;-74
2021/12/25 00:36:04;;;;;;;12.73;6.85;;;;;;;3.97;66.30;91727.91;2067643;69;20144;-70
2021/12/25 00:38:31;;;;;;;13.43;7.10;;;;;;;4.07;65.81;91709.09;2070120;69;20229;-71
2021/12/25 00:40:58;;;;;;;12.43;6.95;;;;;;;3.88;66.55;91714.03;2068386;69;20169;-72
2021/12/25 00:43:23;;;;;;;12.32;6.88;;;;;;;4.01;65.78;91708.69;2070873;69;20164;-72
2021/12/25 00:45:49;;;;;;;12.60;7.28;;;;;;;4.05;65.74;91702.69;2068283;69;20163;-69
2021/12/25 00:48:15;;;;;;;11.27;7.38;;;;;;;3.81;66.66;91710.09;2074176;69;20152;-70
2021/12/25 00:50:40;;;;;;;11.93;6.93;;;;;;;4.03;65.55;91706.06;2070848;69;20144;-69
2021/12/25 00:53:06;;;;;;;10.10;6.03;;;;;;;4.03;66.17;91717.22;2072614;69;20617;-70
2021/12/25 00:55:32;;;;;;;15.95;7.72;;;;;;;3.76;66.72;91711.16;2073484;69;20160;-72
2021/12/25 00:57:58;;;;;;;11.95;6.68;;;;;;;3.87;66.44;91721.66;2072318;69;20144;-80
2021/12/25 01:00:24;;;;;;;11.90;6.07;;;;;;;3.84;66.29;91714.47;2071140;69;20168;-70
2021/12/25 01:02:50;;;;;;;12.38;6.72;;;;;;;3.89;66.46;91721.06;2071251;69;20544;-71
2021/12/25 01:05:18;;;;;;;17.10;7.15;;;;;;;3.89;66.50;91707.13;2070620;69;20690;-74
2021/12/25 01:07:45;;;;;;;13.02;6.75;;;;;;;3.99;65.62;91707.84;2071162;69;20250;-77
2021/12/25 01:10:18;;;;;;;9.65;6.00;;;;;;;4.01;65.77;91710.75;2068799;69;20224;-73
2021/12/25 01:26:21;;;;;;;14.45;7.40;;;;;;;3.63;67.09;91731.84;2071486;69;20155;-72
2021/12/25 01:49:02;;;;;;;16.50;8.65;;;;;;;3.56;66.36;91711.19;2067559;69;20148;-71
2021/12/25 01:51:27;;;;;;;13.38;7.70;;;;;;;2.92;69.38;91721.94;2071663;69;20179;-71
2021/12/25 01:53:53;;;;;;;16.98;8.02;;;;;;;3.07;69.48;91732.06;2068011;69;20144;-71
2021/12/25 01:56:19;;;;;;;16.83;8.60;;;;;;;3.39;67.64;91735.66;2068067;69;20153;-72
2021/12/25 01:58:44;;;;;;;23.38;10.30;;;;;;;3.36;67.51;91726.47;2068128;69;20987;-72
2021/12/25 02:01:11;;;;;;;21.25;9.45;;;;;;;3.42;67.15;91720.59;2068250;69;20156;-71
2021/12/25 02:03:38;;;;;;;16.10;7.80;;;;;;;3.37;67.40;91711.22;2067435;69;20145;-75
2021/12/25 02:06:05;;;;;;;45.40;21.75;;;;;;;3.36;67.84;91707.00;2067963;69;20501;-78
2021/12/25 02:08:33;;;;;;;47.85;23.75;;;;;;;3.49;66.87;91709.31;2067771;69;20136;-75
2021/12/25 02:11:00;;;;;;;41.60;20.45;;;;;;;3.45;66.41;91706.25;2066989;69;20133;-77
2021/12/25 02:13:26;;;;;;;31.02;16.35;;;;;;;3.43;66.99;91694.97;2067551;69;20180;-77
2021/12/25 02:15:55;;;;;;;22.92;12.23;;;;;;;3.43;66.53;91692.19;2067556;69;20202;-70
2021/12/25 02:21:18;;;;;;;30.50;14.75;;;;;;;2.99;68.15;91703.66;2071027;69;20155;-73
2021/12/25 02:23:44;;;;;;;32.55;15.88;;;;;;;3.12;67.43;91696.94;2068014;69;20551;-74
2021/12/25 02:26:10;;;;;;;28.73;14.45;;;;;;;3.10;67.71;91694.00;2068245;69;20597;-77
2021/12/25 02:28:36;;;;;;;33.47;15.45;;;;;;;3.08;67.20;91697.38;2068009;69;20194;-75
2021/12/25 02:31:08;;;;;;;32.92;16.27;;;;;;;3.10;67.92;91703.06;2067730;69;20236;-71
2021/12/25 02:33:36;;;;;;;48.72;27.42;;;;;;;3.07;67.89;91707.03;2068012;69;20600;-71
2021/12/25 02:36:03;;;;;;;50.88;25.67;;;;;;;3.10;68.07;91711.41;2070199;69;20151;-71
2021/12/25 02:38:31;;;;;;;40.95;22.42;;;;;;;3.06;67.04;91714.63;2070295;69;20306;-72
2021/12/25 02:40:57;;;;;;;36.00;20.05;;;;;;;2.98;67.22;91718.88;2070908;69;20196;-76
2021/12/25 02:43:24;;;;;;;33.60;18.30;;;;;;;3.04;67.27;91708.19;2070550;69;20191;-72
2021/12/25 02:45:54;;;;;;;29.60;16.65;;;;;;;3.08;66.76;91714.06;2071080;69;20583;-72
2021/12/25 02:48:20;;;;;;;33.58;18.73;;;;;;;2.88;67.30;91704.97;2070803;69;20160;-72
2021/12/25 02:50:47;;;;;;;35.95;19.52;;;;;;;2.98;67.79;91713.34;2068019;69;20234;-73
2021/12/25 02:53:13;;;;;;;32.35;18.60;;;;;;;2.84;67.92;91707.47;2068252;69;20144;-72
2021/12/25 02:55:41;;;;;;;22.23;12.80;;;;;;;2.98;66.88;91714.06;2069464;69;20219;-75
2021/12/25 02:58:11;;;;;;;20.63;11.65;;;;;;;2.96;67.34;91711.13;2071186;69;20589;-72
2021/12/25 03:00:53;;;;;;;19.92;10.70;;;;;;;3.03;67.40;91709.53;2071469;69;20923;-74
2021/12/25 03:03:19;;;;;;;17.63;8.90;;;;;;;2.84;68.45;91704.69;2068030;69;20157;-71
2021/12/25 03:05:45;;;;;;;15.57;8.82;;;;;;;2.97;68.03;91707.00;2071794;69;20517;-77
2021/12/25 03:08:12;;;;;;;13.10;6.55;;;;;;;3.04;67.51;91697.06;2071411;69;20154;-78
2021/12/25 03:10:47;;;;;;;10.77;5.82;;;;;;;3.06;66.72;91697.22;2070985;69;20136;-76
2021/12/25 03:15:46;;;;;;;8.38;4.95;;;;;;;3.00;66.88;91711.41;2071936;69;20144;-76
2021/12/25 03:18:21;;;;;;;6.90;4.38;;;;;;;3.06;66.97;91711.09;2071831;69;20179;-80
2021/12/25 03:20:49;;;;;;;7.63;4.60;;;;;;;2.97;67.27;91712.56;2071292;69;20701;-78
2021/12/25 03:23:19;;;;;;;9.50;5.18;;;;;;;2.90;67.46;91709.97;2068540;69;20586;-78
2021/12/25 03:25:47;;;;;;;9.43;5.00;;;;;;;2.87;67.85;91711.84;2071189;69;20232;-74
2021/12/25 03:28:18;;;;;;;10.95;5.10;;;;;;;2.80;67.47;91710.69;2071373;69;20132;-80
2021/12/25 03:30:44;;;;;;;9.40;4.95;;;;;;;2.82;68.19;91707.31;2071497;69;20182;-78
2021/12/25 03:33:16;;;;;;;10.55;5.25;;;;;;;2.53;69.19;91707.31;2071373;69;20164;-73
2021/12/25 03:35:42;;;;;;;8.73;4.93;;;;;;;2.80;68.12;91715.53;2065753;69;20215;-73
2021/12/25 03:38:11;;;;;;;9.50;5.00;;;;;;;2.67;68.38;91713.91;2071381;69;20146;-70
2021/12/25 03:40:38;;;;;;;10.38;5.00;;;;;;;2.79;67.66;91717.56;2071313;69;20614;-72
2021/12/25 03:43:04;;;;;;;9.32;4.45;;;;;;;2.76;67.66;91715.22;2071159;69;20633;-79
2021/12/25 03:45:32;;;;;;;6.13;3.78;;;;;;;2.82;67.49;91707.31;2070890;69;20175;-72
2021/12/25 03:48:12;;;;;;;8.55;4.70;;;;;;;2.73;67.75;91708.03;2068558;69;20221;-75
2021/12/25 03:58:52;;;;;;;8.82;4.00;;;;;;;2.76;67.82;91715.22;2071354;69;20186;-75
2021/12/25 04:04:02;;;;;;;4.47;2.97;;;;;;;3.03;67.46;91707.47;2071113;69;20140;-72
2021/12/25 04:06:28;;;;;;;4.03;2.70;;;;;;;3.15;67.20;91693.69;2071248;69;20148;-78
2021/12/25 04:08:53;;;;;;;5.10;2.95;;;;;;;3.04;67.64;91699.84;2071287;69;20176;-75
2021/12/25 04:11:31;;;;;;;6.85;3.78;;;;;;;2.77;69.19;91697.22;2071879;69;20151;-76
2021/12/25 04:13:58;;;;;;;8.60;4.45;;;;;;;2.42;70.29;91699.53;2071110;69;20163;-76
2021/12/25 04:16:27;;;;;;;7.32;4.38;;;;;;;2.52;69.42;91687.13;2071263;69;20145;-77
2021/12/25 04:18:55;;;;;;;7.03;3.72;;;;;;;2.82;68.55;91695.47;2068502;69;20337;-76
2021/12/25 04:21:23;;;;;;;6.72;3.42;;;;;;;2.84;68.74;91699.13;2071168;69;20148;-78
2021/12/25 04:23:49;;;;;;;8.60;4.20;;;;;;;2.53;69.37;91699.69;2071908;69;20175;-78
2021/12/25 04:26:15;;;;;;;6.80;3.90;;;;;;;2.59;68.79;91693.84;2071793;69;20610;-78
2021/12/25 04:28:49;;;;;;;6.63;3.85;;;;;;;2.74;68.67;91688.00;2071179;69;20175;-70
2021/12/25 05:06:27;;;;;;;9.90;5.43;;;;;;;2.36;69.99;91688.69;2071028;69;20238;-78
2021/12/25 05:08:54;;;;;;;8.35;5.10;;;;;;;2.64;69.04;91687.25;2071097;69;20140;-80
2021/12/25 05:11:21;;;;;;;7.55;4.50;;;;;;;2.69;68.92;91693.84;2071154;69;20156;-80
2021/12/25 05:13:49;;;;;;;9.60;5.32;;;;;;;2.73;68.38;91686.53;2071145;69;20144;-75
2021/12/25 05:16:17;;;;;;;7.85;4.75;;;;;;;2.69;68.24;91691.81;2071112;69;20159;-78
2021/12/25 05:18:43;;;;;;;9.82;5.00;;;;;;;2.54;69.58;91692.81;2071185;69;20153;-79
2021/12/25 05:21:09;;;;;;;7.82;4.60;;;;;;;2.48;69.74;91697.94;2071010;69;20528;-74
2021/12/25 05:23:36;;;;;;;8.15;4.68;;;;;;;2.63;68.82;91699.72;2071079;69;20160;-75
2021/12/25 05:26:03;;;;;;;11.32;6.15;;;;;;;2.61;68.13;91696.78;2071532;69;20210;-72
2021/12/25 05:28:38;;;;;;;11.13;5.75;;;;;;;2.64;68.11;91698.38;2072101;69;20598;-79
2021/12/25 05:31:05;;;;;;;9.85;6.25;;;;;;;2.31;69.24;91703.59;2069020;69;20172;-76
2021/12/25 05:33:43;;;;;;;9.10;5.90;;;;;;;2.28;69.45;91708.25;2072163;69;20133;-77
2021/12/25 05:36:38;;;;;;;10.30;5.93;;;;;;;2.36;68.88;91702.59;2065337;69;20295;-71
2021/12/25 05:39:26;;;;;;;10.63;5.72;;;;;;;2.34;68.59;91699.66;2072200;69;20191;-71
2021/12/25 05:41:52;;;;;;;10.38;5.78;;;;;;;2.31;68.42;91711.94;2071587;69;20215;-71
2021/12/25 05:44:23;;;;;;;7.20;5.35;;;;;;;2.30;68.45;91710.47;2071565;69;20159;-77
2021/12/25 05:46:55;;;;;;;9.82;6.82;;;;;;;2.32;68.44;91712.66;2071518;69;20495;-77
2021/12/25 05:49:21;;;;;;;14.18;7.95;;;;;;;2.27;68.20;91700.53;2071417;69;20606;-78
2021/12/25 05:52:14;;;;;;;13.93;7.50;;;;;;;2.36;67.82;91699.81;2067837;69;20656;-76
2021/12/25 05:55:02;;;;;;;16.70;8.55;;;;;;;2.25;68.54;91705.94;2071993;69;20155;-72
2021/12/25 05:57:57;;;;;;;23.63;9.77;;;;;;;2.30;69.01;91699.38;2072015;69;20214;-71
2021/12/25 06:00:39;;;;;;;30.73;14.35;;;;;;;2.32;68.71;91693.22;2071590;69;20209;-71
2021/12/25 06:03:05;;;;;;;36.20;16.58;;;;;;;2.31;69.67;91691.75;2071429;69;20176;-71
2021/12/25 06:05:35;;;;;;;34.05;16.42;;;;;;;2.20;68.44;91687.50;2071472;69;20597;-71
2021/12/25 06:08:02;;;;;;;34.58;16.20;;;;;;;2.17;67.94;91685.91;2070255;69;20153;-76
2021/12/25 06:10:28;;;;;;;28.50;12.25;;;;;;;2.13;68.50;91689.09;2068654;69;20575;-76
2021/12/25 06:12:58;;;;;;;25.27;12.95;;;;;;;2.20;68.83;91699.34;2071433;69;20171;-78
2021/12/25 06:15:24;;;;;;;25.42;11.85;;;;;;;1.95;68.86;91693.28;2071459;69;20522;-80
2021/12/25 06:17:58;;;;;;;26.95;12.48;;;;;;;2.09;68.32;91696.38;2068810;69;20159;-79
2021/12/25 06:20:48;;;;;;;24.27;11.68;;;;;;;1.95;69.09;91701.59;2071342;69;20160;-77
2021/12/25 06:23:32;;;;;;;19.67;9.73;;;;;;;2.01;69.76;91702.06;2068514;69;20244;-75
2021/12/25 06:26:16;;;;;;;18.85;8.57;;;;;;;1.92;69.28;91697.22;2068674;69;20148;-80
2021/12/25 06:29:00;;;;;;;21.95;9.95;;;;;;;1.96;68.88;91694.75;2068079;69;20164;-77
2021/12/25 06:31:39;;;;;;;14.48;7.65;;;;;;;2.03;68.60;91691.13;2068064;69;20235;-78
2021/12/25 06:34:17;;;;;;;18.90;9.55;;;;;;;1.54;71.21;91690.19;2068022;69;20172;-80
2021/12/25 06:37:15;;;;;;;22.80;10.85;;;;;;;1.80;68.98;91691.47;2062481;69;20251;-70
2021/12/25 06:39:54;;;;;;;24.92;13.63;;;;;;;1.80;69.35;91699.81;2068115;69;20155;-72
2021/12/25 06:42:28;;;;;;;21.45;11.63;;;;;;;1.80;68.83;91705.34;2068063;69;20144;-77
2021/12/25 06:44:56;;;;;;;17.25;9.77;;;;;;;1.84;68.67;91716.78;2065294;69;20176;-76
2021/12/25 06:47:22;;;;;;;20.08;10.73;;;;;;;1.66;69.24;91727.19;2068092;69;20140;-78
2021/12/25 06:49:49;;;;;;;25.02;11.90;;;;;;;1.47;69.57;91725.06;2067962;69;20140;-79
2021/12/25 06:52:34;;;;;;;20.98;11.73;;;;;;;1.36;69.84;91725.56;2068632;69;20147;-76
2021/12/25 06:55:09;;;;;;;23.15;11.32;;;;;;;1.35;69.84;91728.94;2069436;69;20148;-75
2021/12/25 06:57:52;;;;;;;24.27;11.30;;;;;;;1.43;69.04;91726.78;2071434;69;20152;-77
2021/12/25 07:00:18;;;;;;;17.92;9.18;;;;;;;1.41;69.31;91719.03;2071393;69;20134;-78
2021/12/25 07:02:43;;;;;;;18.10;9.07;;;;;;;1.50;69.37;91712.06;2071260;69;20160;-77
2021/12/25 07:05:28;;;;;;;16.02;8.40;;;;;;;1.66;68.82;91699.47;2071868;69;20588;-80
2021/12/25 07:08:03;;;;;;;15.90;8.43;;;;;;;1.63;68.99;91699.88;2071919;69;20155;-71
2021/12/25 07:10:42;;;;;;;19.58;10.07;;;;;;;1.48;70.41;91712.66;2071334;69;20227;-74
2021/12/25 07:13:24;;;;;;;20.98;9.80;;;;;;;1.36;70.21;91703.38;2068880;69;20140;-81
2021/12/25 07:16:08;;;;;;;16.33;8.80;;;;;;;1.53;69.28;91706.13;2071901;69;20636;-79
2021/12/25 07:18:54;;;;;;;13.98;7.55;;;;;;;1.64;69.28;91704.84;2070446;69;20318;-78
2021/12/25 07:21:51;;;;;;;18.35;9.52;;;;;;;1.56;69.57;91698.69;2071810;69;20189;-76
2021/12/25 07:24:43;;;;;;;25.70;13.68;;;;;;;1.39;70.38;91693.94;2071407;69;20376;-71
2021/12/25 07:27:41;;;;;;;30.25;15.98;;;;;;;1.61;70.22;91703.25;2067568;69;20213;-70
2021/12/25 07:30:08;;;;;;;41.83;19.77;;;;;;;1.70;70.28;91699.03;2071891;69;20157;-69
2021/12/25 07:32:33;;;;;;;17.55;10.23;;;;;;;1.80;70.17;91707.41;2071811;69;20174;-71
2021/12/25 07:34:59;;;;;;;31.88;16.10;;;;;;;1.82;70.49;91697.16;2071856;69;20583;-73
2021/12/25 07:37:25;;;;;;;35.42;16.65;;;;;;;1.63;71.12;91708.94;2071837;69;20180;-75
2021/12/25 07:39:50;;;;;;;35.53;18.35;;;;;;;1.81;70.51;91717.19;2071959;69;20175;-77
2021/12/25 07:42:16;;;;;;;34.17;16.48;;;;;;;1.79;70.54;91706.66;2071863;69;20152;-71
2021/12/25 07:45:06;;;;;;;30.00;16.02;;;;;;;1.82;70.81;91707.53;2071279;69;20152;-76
2021/12/25 07:47:34;;;;;;;41.63;21.60;;;;;;;1.38;71.97;91708.38;2071743;69;20140;-72
2021/12/25 07:50:01;;;;;;;51.42;24.85;;;;;;;1.77;70.94;91707.22;2071450;69;20156;-71
2021/12/25 07:52:28;;;;;;;39.20;20.88;;;;;;;1.91;70.55;91704.81;2070223;69;20145;-74
2021/12/25 07:54:53;;;;;;;46.13;25.13;;;;;;;1.87;70.04;91712.81;2069647;69;20240;-71
2021/12/25 07:57:19;;;;;;;44.47;23.45;;;;;;;2.03;70.32;91696.66;2070194;69;20177;-71
2021/12/25 07:59:45;;;;;;;53.42;26.77;;;;;;;1.41;71.92;91699.63;2068522;69;20156;-70
2021/12/25 08:02:11;;;;;;;44.28;22.23;;;;;;;1.82;71.94;91699.22;2069531;69;20606;-71
2021/12/25 08:04:39;;;;;;;47.25;24.35;;;;;;;2.11;70.99;91700.06;2071489;69;20144;-72
2021/12/25 08:07:05;;;;;;;43.15;21.23;;;;;;;2.19;70.73;91699.91;2071768;69;20160;-72
2021/12/25 08:09:31;;;;;;;38.65;20.15;;;;;;;2.37;70.15;91706.81;2071721;69;20482;-71
2021/12/25 08:12:00;;;;;;;41.28;21.52;;;;;;;2.41;70.32;91714.72;2071776;69;20144;-78
2021/12/25 08:14:27;;;;;;;40.85;21.42;;;;;;;2.54;70.14;91711.53;2072991;69;20245;-75
2021/12/25 08:16:54;;;;;;;39.30;21.45;;;;;;;2.54;70.36;91706.72;2074459;69;20147;-79
2021/12/25 08:19:21;;;;;;;32.90;16.85;;;;;;;2.72;69.68;91704.53;2074091;69;20621;-73
2021/12/25 08:22:22;;;;;;;33.65;18.13;;;;;;;2.93;69.98;91703.22;2064115;69;20179;-76
2021/12/25 08:25:13;;;;;;;21.52;11.15;;;;;;;3.03;69.06;91696.34;2066264;69;20514;-79
2021/12/25 08:27:57;;;;;;;18.48;10.90;;;;;;;3.21;67.71;91699.69;2071750;69;20139;-70
2021/12/25 08:30:47;;;;;;;27.83;14.77;;;;;;;3.15;68.72;91701.31;2065043;69;20591;-71
2021/12/25 08:33:31;;;;;;;36.33;18.95;;;;;;;2.95;69.27;91706.16;2071948;69;20213;-73
2021/12/25 08:36:16;;;;;;;33.15;17.83;;;;;;;3.17;68.79;91704.97;2068927;69;20164;-73
2021/12/25 08:38:41;;;;;;;35.25;18.38;;;;;;;3.33;68.80;91707.44;2072083;69;20595;-71
2021/12/25 08:41:07;;;;;;;43.40;22.65;;;;;;;3.44;68.47;91699.22;2072206;69;20214;-70
2021/12/25 08:43:36;;;;;;;39.85;20.83;;;;;;;3.53;68.03;91706.09;2071772;69;20667;-76
2021/12/25 08:46:17;;;;;;;37.08;21.20;;;;;;;3.67;68.50;91700.78;2070560;69;20509;-74
2021/12/25 08:48:42;;;;;;;47.53;22.50;;;;;;;3.80;68.16;91691.91;2073182;69;20170;-78
2021/12/25 08:51:08;;;;;;;36.53;19.23;;;;;;;3.61;68.27;91703.13;2073933;69;20595;-74
2021/12/25 08:53:34;;;;;;;37.50;19.73;;;;;;;3.64;67.72;91705.47;2074297;69;20152;-75
2021/12/25 08:56:00;;;;;;;38.08;21.42;;;;;;;3.71;67.43;91701.78;2073706;69;20163;-72
2021/12/25 08:58:30;;;;;;;36.90;20.92;;;;;;;3.72;67.74;91711.59;2073580;69;20152;-72
2021/12/25 09:00:57;;;;;;;42.05;21.02;;;;;;;4.04;67.64;91712.38;2071937;69;20160;-72
2021/12/25 09:03:25;;;;;;;38.38;20.70;;;;;;;4.27;67.56;91709.03;2071812;69;20137;-73
2021/12/25 09:05:56;;;;;;;37.05;20.33;;;;;;;4.31;67.13;91704.47;2071768;69;20155;-72
2021/12/25 09:08:23;;;;;;;39.42;20.92;;;;;;;4.21;65.84;91712.13;2066923;69;20535;-72
2021/12/25 09:10:48;;;;;;;39.15;19.75;;;;;;;3.90;66.73;91706.56;2067926;69;20159;-72
2021/12/25 09:13:14;;;;;;;38.63;23.27;;;;;;;4.30;66.14;91708.56;2071400;69;20187;-72
2021/12/25 09:15:40;;;;;;;39.58;24.15;;;;;;;4.52;65.68;91703.75;2071499;69;20136;-72
2021/12/25 09:18:05;;;;;;;35.90;21.63;;;;;;;4.67;65.07;91688.69;2071608;69;20178;-72
2021/12/25 09:20:31;;;;;;;38.70;22.88;;;;;;;4.77;65.04;91706.09;2071233;69;20153;-73
2021/12/25 09:22:57;;;;;;;35.03;20.45;;;;;;;4.90;64.08;91704.81;2070813;69;20164;-75
2021/12/25 09:25:24;;;;;;;27.65;15.55;;;;;;;4.92;64.01;91702.16;2071252;69;20591;-73
2021/12/25 09:27:50;;;;;;;24.15;14.30;;;;;;;5.06;64.25;91697.50;2071326;69;20223;-74
2021/12/25 09:30:16;;;;;;;22.58;14.35;;;;;;;4.66;64.89;91701.16;2068041;69;20156;-74
2021/12/25 09:32:41;;;;;;;23.48;14.18;;;;;;;5.07;64.30;91701.75;2071357;69;20157;-74
2021/12/25 09:35:08;;;;;;;23.15;13.63;;;;;;;5.34;63.72;91709.03;2071375;69;20152;-75
2021/12/25 09:37:33;;;;;;;23.13;13.48;;;;;;;5.46;63.58;91697.91;2071504;69;20152;-74
2021/12/25 09:40:01;;;;;;;19.33;12.55;;;;;;;5.51;63.18;91696.84;2071409;69;20136;-72
2021/12/25 09:42:27;;;;;;;26.42;15.60;;;;;;;5.52;64.08;91692.69;2071498;69;20144;-73
2021/12/25 09:44:53;;;;;;;35.75;21.58;;;;;;;5.72;64.06;91693.22;2071428;69;20159;-74
2021/12/25 09:47:19;;;;;;;38.15;22.17;;;;;;;5.93;62.83;91692.44;2071511;69;20168;-73
2021/12/25 09:49:46;;;;;;;39.38;23.05;;;;;;;6.06;62.59;91694.66;2071386;69;20175;-73
2021/12/25 09:52:12;;;;;;;41.15;23.25;;;;;;;6.03;62.25;91693.06;2071500;69;20144;-74
2021/12/25 09:54:37;;;;;;;35.83;22.15;;;;;;;6.15;62.34;91693.09;2071635;69;20152;-80
2021/12/25 09:57:03;;;;;;;41.13;23.15;;;;;;;5.85;62.62;91685.00;2071425;69;20152;-79
2021/12/25 09:59:29;;;;;;;42.75;24.75;;;;;;;6.01;62.30;91682.50;2071650;69;20672;-79
2021/12/25 10:01:56;;;;;;;37.22;21.77;;;;;;;5.70;62.12;91685.47;2071606;69;20642;-79
2021/12/25 10:04:35;;;;;;;36.60;20.63;;;;;;;6.08;61.84;91678.00;2071365;69;20248;-77
2021/12/25 10:07:12;;;;;;;35.95;21.98;;;;;;;6.29;61.79;91674.38;2071460;69;20600;-80
2021/12/25 10:09:38;;;;;;;36.80;22.00;;;;;;;6.44;61.48;91676.66;2071485;69;20145;-81
2021/12/25 10:12:10;;;;;;;38.17;21.40;;;;;;;6.49;61.08;91675.56;2071897;69;20145;-80
2021/12/25 10:14:37;;;;;;;38.22;21.67;;;;;;;6.67;60.73;91663.97;2072139;69;20247;-79
2021/12/25 10:17:19;;;;;;;38.97;22.63;;;;;;;6.72;60.59;91665.66;2072209;69;20143;-77
2021/12/25 10:20:07;;;;;;;44.97;26.98;;;;;;;6.60;60.49;91657.31;2071909;69;20152;-75
2021/12/25 10:22:34;;;;;;;68.93;38.55;;;;;;;6.63;60.63;91656.09;2068621;69;20144;-80
2021/12/25 10:25:11;;;;;;;42.17;25.73;;;;;;;6.30;61.14;91636.69;2071929;69;20140;-76
2021/12/25 10:27:47;;;;;;;47.10;28.42;;;;;;;6.66;60.80;91643.69;2072113;69;20160;-79
2021/12/25 10:30:13;;;;;;;46.28;26.30;;;;;;;6.81;60.34;91637.56;2071985;69;20144;-81
2021/12/25 10:32:39;;;;;;;31.48;20.92;;;;;;;6.03;61.25;91632.31;2072083;69;20151;-78
2021/12/25 10:35:20;;;;;;;28.73;19.45;;;;;;;6.59;60.55;91639.06;2071878;69;20248;-79
2021/12/25 10:37:48;;;;;;;31.52;19.13;;;;;;;6.99;59.80;91634.34;2072052;69;20140;-79
2021/12/25 10:40:26;;;;;;;23.63;14.88;;;;;;;7.14;59.25;91628.91;2072072;69;20148;-80
2021/12/25 10:42:55;;;;;;;24.35;14.25;;;;;;;7.46;58.56;91620.84;2071931;69;20227;-78
2021/12/25 10:45:22;;;;;;;23.92;15.23;;;;;;;7.61;57.52;91623.09;2072029;69;20132;-73
2021/12/25 10:48:03;;;;;;;31.42;18.90;;;;;;;7.30;58.24;91626.31;2072026;69;20181;-73
2021/12/25 10:50:34;;;;;;;29.35;18.25;;;;;;;7.97;58.67;91625.66;2071874;69;20144;-73
2021/12/25 10:53:00;;;;;;;28.95;18.00;;;;;;;8.19;56.74;91618.41;2071907;69;20159;-72
2021/12/25 10:55:26;;;;;;;26.35;16.13;;;;;;;8.43;56.16;91607.78;2072031;69;20179;-73
2021/12/25 10:57:53;;;;;;;40.97;23.67;;;;;;;8.58;55.90;91609.94;2071950;69;20145;-78
2021/12/25 11:00:22;;;;;;;56.20;32.17;;;;;;;8.55;56.02;91611.16;2071899;69;20145;-75
2021/12/25 11:02:52;;;;;;;46.67;28.98;;;;;;;8.90;55.20;91599.59;2071801;69;20278;-76
2021/12/25 11:05:29;;;;;;;38.15;22.42;;;;;;;9.20;53.71;91599.59;2072203;69;20136;-81
2021/12/25 11:08:07;;;;;;;37.00;22.80;;;;;;;9.56;53.23;91591.44;2071907;69;20264;-74
2021/12/25 11:10:47;;;;;;;40.08;23.42;;;;;;;9.02;52.64;91591.03;2071920;69;20543;-73
2021/12/25 11:13:33;;;;;;;21.10;13.43;;;;;;;8.68;54.08;91595.69;2071957;69;20152;-74
2021/12/25 11:19:16;;;;;;;17.27;12.30;;;;;;;9.00;52.14;91598.63;2071796;69;20224;-80
2021/12/25 11:21:46;;;;;;;38.17;22.75;;;;;;;8.68;52.85;91595.69;2071889;69;20148;-74
2021/12/25 11:24:19;;;;;;;23.35;14.40;;;;;;;9.12;52.84;91590.81;2071838;69;20153;-79
2021/12/25 11:26:48;;;;;;;23.58;14.30;;;;;;;9.06;52.43;91602.44;2071993;69;20627;-78
2021/12/25 11:29:17;;;;;;;25.15;14.40;;;;;;;9.09;53.03;91584.34;2071876;69;20581;-76
2021/12/25 11:31:44;;;;;;;20.83;13.15;;;;;;;9.18;52.90;91581.94;2071839;69;20600;-76
2021/12/25 11:34:10;;;;;;;47.38;29.58;;;;;;;8.28;53.40;91583.84;2071867;69;20231;-78
2021/12/25 11:36:53;;;;;;;36.63;24.35;;;;;;;8.90;53.23;91577.13;2071973;69;20214;-73
2021/12/25 11:39:22;;;;;;;28.58;17.55;;;;;;;9.23;53.02;91578.69;2071811;69;20135;-76
2021/12/25 11:41:53;;;;;;;31.27;18.92;;;;;;;8.88;52.60;91579.09;2068472;69;20197;-77
2021/12/25 11:44:32;;;;;;;22.73;14.73;;;;;;;9.21;52.35;91575.81;2071829;69;20155;-80
2021/12/25 11:46:58;;;;;;;21.48;12.88;;;;;;;9.30;52.38;91571.28;2071882;69;20136;-74
2021/12/25 11:49:23;;;;;;;15.05;9.30;;;;;;;8.85;50.92;91564.25;2071667;69;20144;-78
2021/12/25 11:51:51;;;;;;;14.65;9.40;;;;;;;9.09;51.30;91561.91;2071843;69;20160;-78
2021/12/25 11:59:51;;;;;;;13.68;9.52;;;;;;;9.37;50.85;91561.78;2071812;69;20198;-76
2021/12/25 12:02:36;;;;;;;14.55;9.30;;;;;;;9.50;50.68;91551.84;2071860;69;20213;-75
2021/12/25 12:05:21;;;;;;;15.48;9.88;;;;;;;9.74;51.11;91552.94;2071633;69;20333;-74
2021/12/25 12:08:06;;;;;;;15.18;10.27;;;;;;;9.83;49.50;91554.75;2071804;69;20132;-74
2021/12/25 12:10:55;;;;;;;15.88;9.85;;;;;;;9.65;50.39;91540.63;2071733;69;20170;-79
2021/12/25 12:13:44;;;;;;;16.05;9.55;;;;;;;9.40;50.33;91540.88;2066724;69;20139;-76
2021/12/25 12:16:37;;;;;;;53.85;31.50;;;;;;;9.21;49.66;91538.56;2071764;69;20143;-76
2021/12/25 12:19:30;;;;;;;40.88;23.85;;;;;;;9.48;50.32;91527.19;2068339;69;20280;-77
2021/12/25 12:27:48;;;;;;;25.60;16.13;;;;;;;9.74;50.17;91515.69;2071865;69;20152;-73
2021/12/25 12:30:34;;;;;;;24.52;14.25;;;;;;;9.79;49.73;91517.31;2071667;69;20144;-74
2021/12/25 12:33:23;;;;;;;22.35;12.38;;;;;;;9.78;49.46;91515.88;2071417;69;20588;-74
2021/12/25 12:35:53;;;;;;;19.27;11.73;;;;;;;9.76;49.71;91515.78;2071542;69;20144;-72
2021/12/25 12:38:42;;;;;;;15.55;9.85;;;;;;;9.42;49.61;91519.22;2071879;69;20141;-75
2021/12/25 12:41:27;;;;;;;37.00;21.25;;;;;;;9.35;50.67;91525.91;2065546;69;20239;-72
2021/12/25 12:44:14;;;;;;;25.08;13.80;;;;;;;9.58;49.79;91529.75;2071596;69;20512;-73
2021/12/25 12:46:53;;;;;;;80.40;49.28;;;;;;;9.67;48.90;91521.06;2071775;69;20140;-72
2021/12/25 12:49:38;;;;;;;43.03;25.90;;;;;;;9.67;49.55;91523.88;2071484;69;20511;-72
2021/12/25 12:52:24;;;;;;;17.08;10.10;;;;;;;9.49;49.65;91516.69;2071636;69;20649;-72
2021/12/25 12:54:59;;;;;;;15.60;9.65;;;;;;;9.59;50.06;91512.25;2071737;69;20255;-73
2021/12/25 12:57:36;;;;;;;18.50;10.90;;;;;;;9.50;48.76;91510.44;2071622;69;20147;-73
2021/12/25 13:00:27;;;;;;;17.77;10.45;;;;;;;9.43;49.57;91515.03;2068167;69;20162;-72
2021/12/25 13:02:57;;;;;;;19.25;9.95;;;;;;;9.58;48.94;91513.63;2069834;69;20866;-72
2021/12/25 13:05:38;;;;;;;15.65;9.50;;;;;;;9.59;49.56;91505.91;2070539;69;20598;-72
2021/12/25 13:08:19;;;;;;;13.27;8.63;;;;;;;9.31;49.08;91511.69;2070789;69;20140;-72
2021/12/25 13:10:52;;;;;;;13.20;8.38;;;;;;;9.46;49.29;91509.53;2070844;69;20172;-72
2021/12/25 13:13:27;;;;;;;15.32;9.82;;;;;;;9.50;49.36;91510.44;2071319;69;20155;-72
2021/12/25 13:16:00;;;;;;;20.95;12.32;;;;;;;9.00;51.70;91514.44;2071502;69;20148;-72
2021/12/25 13:18:35;;;;;;;27.85;14.07;;;;;;;9.04;51.45;91520.97;2070823;69;20170;-73
2021/12/25 13:21:05;;;;;;;23.27;13.40;;;;;;;9.24;51.13;91518.38;2071371;69;20137;-73
2021/12/25 13:23:46;;;;;;;18.48;12.18;;;;;;;9.29;50.90;91522.81;2071395;69;20148;-73
2021/12/25 13:26:14;;;;;;;19.63;11.23;;;;;;;9.29;50.68;91520.00;2070875;69;20140;-74
2021/12/25 13:28:43;;;;;;;21.17;12.20;;;;;;;9.21;49.86;91518.91;2071392;69;20147;-73
2021/12/25 13:31:12;;;;;;;19.92;12.00;;;;;;;9.27;49.57;91522.00;2071364;69;20147;-71
2021/12/25 13:33:47;;;;;;;17.80;11.88;;;;;;;9.21;50.44;91527.31;2071475;69;20151;-73
2021/12/25 13:36:20;;;;;;;19.95;11.73;;;;;;;9.24;50.51;91515.56;2071332;69;20247;-74